sensor_id;sensor_type;location;lat;lon;timestamp;P1;durP1;ratioP1;P2;durP2;ratioP2
62915;SDS011;49010;51.230;-2.306;2022-12-29T00:00:23;14.32;;;2.92;;
62915;SDS011;49010;51.230;-2.306;2022-12-29T00:04:05;15.80;;;3.67;;
62915;SDS011;49010;51.230;-2.306;2022-12-29T00:07:54;16.02;;;3.88;;
62915;SDS011;49010;51.230;-2.306;2022-12-29T00:11:36;23.20;;;5.03;;
62915;SDS011;49010;51.230;-2.306;2022-12-29T00:15:18;24.17;;;4.00;;
62915;SDS011;49010;51.230;-2.306;2022-12-29T00:19:18;19.67;;;3.38;;
62915;SDS011;49010;51.230;-2.306;2022-12-29T00:23:19;20.85;;;4.05;;
62915;SDS011;49010;51.230;-2.306;2022-12-29T00:27:19;17.20;;;3.65;;
62915;SDS011;49010;51.230;-2.306;2022-12-29T00:31:20;17.27;;;3.75;;
62915;SDS011;49010;51.230;-2.306;2022-12-29T00:35:23;14.68;;;3.10;;
62915;SDS011;49010;51.230;-2.306;2022-12-29T00:39:12;18.80;;;3.25;;
62915;SDS011;49010;51.230;-2.306;2022-12-29T00:43:16;24.10;;;3.95;;
62915;SDS011;49010;51.230;-2.306;2022-12-29T00:47:16;16.65;;;3.55;;
62915;SDS011;49010;51.230;-2.306;2022-12-29T00:50:58;15.70;;;2.70;;
62915;SDS011;49010;51.230;-2.306;2022-12-29T00:54:40;24.23;;;4.22;;
62915;SDS011;49010;51.230;-2.306;2022-12-29T00:58:29;22.40;;;3.75;;
62915;SDS011;49010;51.230;-2.306;2022-12-29T01:02:11;17.27;;;3.35;;
62915;SDS011;49010;51.230;-2.306;2022-12-29T01:05:53;15.25;;;3.42;;
62915;SDS011;49010;51.230;-2.306;2022-12-29T01:09:35;15.40;;;3.42;;
62915;SDS011;49010;51.230;-2.306;2022-12-29T01:13:36;15.40;;;3.15;;
62915;SDS011;49010;51.230;-2.306;2022-12-29T01:17:19;19.25;;;2.92;;
62915;SDS011;49010;51.230;-2.306;2022-12-29T01:21:05;18.90;;;3.50;;
62915;SDS011;49010;51.230;-2.306;2022-12-29T01:24:47;29.20;;;4.50;;
62915;SDS011;49010;51.230;-2.306;2022-12-29T01:28:30;26.73;;;4.00;;
62915;SDS011;49010;51.230;-2.306;2022-12-29T01:32:12;19.27;;;3.50;;
62915;SDS011;49010;51.230;-2.306;2022-12-29T01:35:54;20.13;;;4.03;;
62915;SDS011;49010;51.230;-2.306;2022-12-29T01:39:36;11.60;;;3.92;;
62915;SDS011;49010;51.230;-2.306;2022-12-29T01:43:18;20.23;;;3.80;;
62915;SDS011;49010;51.230;-2.306;2022-12-29T01:46:59;18.60;;;4.35;;
62915;SDS011;49010;51.230;-2.306;2022-12-29T01:50:43;22.40;;;4.90;;
62915;SDS011;49010;51.230;-2.306;2022-12-29T01:54:41;27.48;;;4.68;;
62915;SDS011;49010;51.230;-2.306;2022-12-29T01:58:30;25.63;;;3.83;;
62915;SDS011;49010;51.230;-2.306;2022-12-29T02:02:17;28.92;;;4.45;;
62915;SDS011;49010;51.230;-2.306;2022-12-29T02:06:03;21.23;;;4.78;;
62915;SDS011;49010;51.230;-2.306;2022-12-29T02:09:54;16.88;;;3.70;;
62915;SDS011;49010;51.230;-2.306;2022-12-29T02:13:36;29.08;;;5.80;;
62915;SDS011;49010;51.230;-2.306;2022-12-29T02:17:32;19.20;;;4.47;;
62915;SDS011;49010;51.230;-2.306;2022-12-29T02:33:21;16.20;;;3.10;;
62915;SDS011;49010;51.230;-2.306;2022-12-29T02:45:01;20.05;;;4.15;;
62915;SDS011;49010;51.230;-2.306;2022-12-29T02:49:22;18.83;;;3.83;;
62915;SDS011;49010;51.230;-2.306;2022-12-29T02:53:08;15.70;;;3.58;;
62915;SDS011;49010;51.230;-2.306;2022-12-29T02:56:53;16.67;;;2.85;;
62915;SDS011;49010;51.230;-2.306;2022-12-29T03:00:36;19.10;;;3.40;;
62915;SDS011;49010;51.230;-2.306;2022-12-29T03:12:36;10.88;;;3.10;;
62915;SDS011;49010;51.230;-2.306;2022-12-29T03:16:47;14.20;;;3.38;;
62915;SDS011;49010;51.230;-2.306;2022-12-29T03:25:05;11.68;;;3.20;;
62915;SDS011;49010;51.230;-2.306;2022-12-29T03:28:54;12.48;;;3.10;;
62915;SDS011;49010;51.230;-2.306;2022-12-29T03:32:40;15.55;;;2.80;;
62915;SDS011;49010;51.230;-2.306;2022-12-29T03:36:30;15.52;;;3.35;;
62915;SDS011;49010;51.230;-2.306;2022-12-29T03:40:20;10.68;;;2.45;;
62915;SDS011;49010;51.230;-2.306;2022-12-29T03:44:05;9.10;;;2.72;;
62915;SDS011;49010;51.230;-2.306;2022-12-29T03:47:48;6.13;;;1.77;;
62915;SDS011;49010;51.230;-2.306;2022-12-29T03:51:30;6.97;;;1.48;;
62915;SDS011;49010;51.230;-2.306;2022-12-29T03:55:11;9.30;;;1.52;;
62915;SDS011;49010;51.230;-2.306;2022-12-29T03:58:53;8.05;;;1.45;;
62915;SDS011;49010;51.230;-2.306;2022-12-29T04:02:35;5.30;;;1.40;;
62915;SDS011;49010;51.230;-2.306;2022-12-29T04:06:17;10.15;;;1.65;;
62915;SDS011;49010;51.230;-2.306;2022-12-29T04:09:59;5.90;;;1.40;;
62915;SDS011;49010;51.230;-2.306;2022-12-29T04:13:41;8.77;;;2.40;;
62915;SDS011;49010;51.230;-2.306;2022-12-29T04:17:22;15.50;;;2.67;;
62915;SDS011;49010;51.230;-2.306;2022-12-29T04:21:04;10.90;;;2.67;;
62915;SDS011;49010;51.230;-2.306;2022-12-29T04:24:47;10.07;;;1.58;;
62915;SDS011;49010;51.230;-2.306;2022-12-29T04:28:29;11.98;;;1.65;;
62915;SDS011;49010;51.230;-2.306;2022-12-29T04:32:11;10.93;;;1.73;;
62915;SDS011;49010;51.230;-2.306;2022-12-29T04:35:54;9.18;;;1.77;;
62915;SDS011;49010;51.230;-2.306;2022-12-29T04:39:36;8.15;;;2.53;;
62915;SDS011;49010;51.230;-2.306;2022-12-29T04:43:18;15.82;;;1.85;;
62915;SDS011;49010;51.230;-2.306;2022-12-29T04:47:00;9.05;;;2.05;;
62915;SDS011;49010;51.230;-2.306;2022-12-29T04:50:42;11.02;;;1.50;;
62915;SDS011;49010;51.230;-2.306;2022-12-29T04:54:24;6.80;;;1.50;;
62915;SDS011;49010;51.230;-2.306;2022-12-29T04:58:06;7.10;;;2.08;;
62915;SDS011;49010;51.230;-2.306;2022-12-29T05:01:48;6.88;;;1.52;;
62915;SDS011;49010;51.230;-2.306;2022-12-29T05:05:30;5.80;;;1.30;;
62915;SDS011;49010;51.230;-2.306;2022-12-29T05:09:12;10.02;;;1.90;;
62915;SDS011;49010;51.230;-2.306;2022-12-29T05:12:54;7.13;;;1.70;;
62915;SDS011;49010;51.230;-2.306;2022-12-29T05:16:36;9.40;;;1.83;;
62915;SDS011;49010;51.230;-2.306;2022-12-29T05:20:18;9.02;;;1.27;;
62915;SDS011;49010;51.230;-2.306;2022-12-29T05:24:00;5.50;;;1.27;;
62915;SDS011;49010;51.230;-2.306;2022-12-29T05:27:42;6.85;;;1.65;;
62915;SDS011;49010;51.230;-2.306;2022-12-29T05:31:23;12.90;;;2.53;;
62915;SDS011;49010;51.230;-2.306;2022-12-29T05:35:05;7.82;;;1.73;;
62915;SDS011;49010;51.230;-2.306;2022-12-29T05:38:47;11.05;;;1.83;;
62915;SDS011;49010;51.230;-2.306;2022-12-29T05:42:29;14.55;;;2.20;;
62915;SDS011;49010;51.230;-2.306;2022-12-29T05:46:11;8.55;;;1.33;;
62915;SDS011;49010;51.230;-2.306;2022-12-29T05:49:53;9.95;;;1.23;;
62915;SDS011;49010;51.230;-2.306;2022-12-29T05:53:34;7.80;;;1.90;;
62915;SDS011;49010;51.230;-2.306;2022-12-29T05:57:16;3.15;;;1.00;;
62915;SDS011;49010;51.230;-2.306;2022-12-29T06:00:58;4.18;;;1.13;;
62915;SDS011;49010;51.230;-2.306;2022-12-29T06:04:40;10.25;;;1.83;;
62915;SDS011;49010;51.230;-2.306;2022-12-29T06:08:22;5.15;;;0.80;;
62915;SDS011;49010;51.230;-2.306;2022-12-29T06:12:04;8.65;;;1.25;;
62915;SDS011;49010;51.230;-2.306;2022-12-29T06:15:48;4.07;;;0.68;;
62915;SDS011;49010;51.230;-2.306;2022-12-29T06:19:30;4.75;;;1.13;;
62915;SDS011;49010;51.230;-2.306;2022-12-29T06:23:12;5.15;;;1.30;;
62915;SDS011;49010;51.230;-2.306;2022-12-29T06:26:54;8.48;;;1.75;;
62915;SDS011;49010;51.230;-2.306;2022-12-29T06:30:36;3.92;;;0.90;;
62915;SDS011;49010;51.230;-2.306;2022-12-29T06:34:17;3.60;;;1.00;;
62915;SDS011;49010;51.230;-2.306;2022-12-29T06:37:59;5.03;;;1.10;;
62915;SDS011;49010;51.230;-2.306;2022-12-29T06:41:41;5.63;;;1.05;;
62915;SDS011;49010;51.230;-2.306;2022-12-29T06:45:23;4.70;;;1.00;;
62915;SDS011;49010;51.230;-2.306;2022-12-29T06:49:04;5.85;;;0.90;;
62915;SDS011;49010;51.230;-2.306;2022-12-29T06:52:47;4.65;;;1.00;;
62915;SDS011;49010;51.230;-2.306;2022-12-29T06:56:29;5.65;;;0.90;;
62915;SDS011;49010;51.230;-2.306;2022-12-29T07:00:10;5.85;;;1.17;;
62915;SDS011;49010;51.230;-2.306;2022-12-29T07:03:58;3.50;;;0.52;;
62915;SDS011;49010;51.230;-2.306;2022-12-29T07:07:39;3.00;;;0.80;;
62915;SDS011;49010;51.230;-2.306;2022-12-29T07:11:21;7.85;;;1.10;;
62915;SDS011;49010;51.230;-2.306;2022-12-29T07:15:04;7.65;;;1.70;;
62915;SDS011;49010;51.230;-2.306;2022-12-29T07:18:46;6.10;;;0.93;;
62915;SDS011;49010;51.230;-2.306;2022-12-29T07:22:28;5.40;;;1.50;;
62915;SDS011;49010;51.230;-2.306;2022-12-29T07:26:11;11.40;;;1.52;;
62915;SDS011;49010;51.230;-2.306;2022-12-29T07:29:55;9.70;;;1.63;;
62915;SDS011;49010;51.230;-2.306;2022-12-29T07:33:37;5.35;;;1.50;;
62915;SDS011;49010;51.230;-2.306;2022-12-29T07:37:18;6.43;;;1.10;;
62915;SDS011;49010;51.230;-2.306;2022-12-29T07:41:01;10.57;;;1.52;;
62915;SDS011;49010;51.230;-2.306;2022-12-29T07:44:42;4.88;;;1.63;;
62915;SDS011;49010;51.230;-2.306;2022-12-29T07:48:24;12.35;;;2.10;;
62915;SDS011;49010;51.230;-2.306;2022-12-29T07:52:06;6.30;;;1.17;;
62915;SDS011;49010;51.230;-2.306;2022-12-29T07:55:48;3.67;;;0.93;;
62915;SDS011;49010;51.230;-2.306;2022-12-29T07:59:30;3.83;;;0.75;;
62915;SDS011;49010;51.230;-2.306;2022-12-29T08:03:11;1.65;;;0.43;;
62915;SDS011;49010;51.230;-2.306;2022-12-29T08:06:53;2.85;;;0.43;;
62915;SDS011;49010;51.230;-2.306;2022-12-29T08:10:35;2.38;;;0.77;;
62915;SDS011;49010;51.230;-2.306;2022-12-29T08:14:17;1.95;;;0.40;;
62915;SDS011;49010;51.230;-2.306;2022-12-29T08:17:59;2.20;;;0.70;;
62915;SDS011;49010;51.230;-2.306;2022-12-29T08:21:41;2.92;;;0.50;;
62915;SDS011;49010;51.230;-2.306;2022-12-29T08:25:23;4.65;;;0.80;;
62915;SDS011;49010;51.230;-2.306;2022-12-29T08:29:05;9.80;;;0.82;;
62915;SDS011;49010;51.230;-2.306;2022-12-29T08:32:47;4.85;;;1.00;;
62915;SDS011;49010;51.230;-2.306;2022-12-29T08:36:29;5.75;;;1.33;;
62915;SDS011;49010;51.230;-2.306;2022-12-29T08:40:11;3.47;;;0.80;;
62915;SDS011;49010;51.230;-2.306;2022-12-29T08:43:54;1.58;;;0.60;;
62915;SDS011;49010;51.230;-2.306;2022-12-29T08:47:36;9.50;;;1.52;;
62915;SDS011;49010;51.230;-2.306;2022-12-29T08:51:18;4.78;;;1.25;;
62915;SDS011;49010;51.230;-2.306;2022-12-29T08:55:05;4.03;;;0.88;;
62915;SDS011;49010;51.230;-2.306;2022-12-29T08:58:47;6.00;;;0.90;;
62915;SDS011;49010;51.230;-2.306;2022-12-29T09:02:29;5.93;;;1.65;;
62915;SDS011;49010;51.230;-2.306;2022-12-29T09:06:11;6.10;;;1.00;;
62915;SDS011;49010;51.230;-2.306;2022-12-29T09:09:53;4.60;;;0.88;;
62915;SDS011;49010;51.230;-2.306;2022-12-29T09:13:35;4.05;;;0.85;;
62915;SDS011;49010;51.230;-2.306;2022-12-29T09:17:17;6.05;;;1.13;;
62915;SDS011;49010;51.230;-2.306;2022-12-29T09:21:18;5.78;;;1.38;;
62915;SDS011;49010;51.230;-2.306;2022-12-29T09:25:01;9.18;;;1.73;;
62915;SDS011;49010;51.230;-2.306;2022-12-29T09:28:43;10.05;;;1.67;;
62915;SDS011;49010;51.230;-2.306;2022-12-29T09:32:25;7.22;;;1.35;;
62915;SDS011;49010;51.230;-2.306;2022-12-29T09:36:13;5.95;;;1.20;;
62915;SDS011;49010;51.230;-2.306;2022-12-29T09:39:55;6.50;;;1.50;;
62915;SDS011;49010;51.230;-2.306;2022-12-29T09:47:40;7.40;;;1.10;;
62915;SDS011;49010;51.230;-2.306;2022-12-29T09:51:24;6.18;;;1.70;;
62915;SDS011;49010;51.230;-2.306;2022-12-29T09:55:17;9.80;;;2.25;;
62915;SDS011;49010;51.230;-2.306;2022-12-29T09:59:11;14.23;;;4.55;;
62915;SDS011;49010;51.230;-2.306;2022-12-29T10:03:32;14.68;;;4.78;;
62915;SDS011;49010;51.230;-2.306;2022-12-29T10:07:12;17.70;;;3.70;;
62915;SDS011;49010;51.230;-2.306;2022-12-29T10:15:18;8.13;;;2.30;;
62915;SDS011;49010;51.230;-2.306;2022-12-29T10:23:26;9.63;;;3.08;;
62915;SDS011;49010;51.230;-2.306;2022-12-29T10:27:21;7.82;;;2.20;;
62915;SDS011;49010;51.230;-2.306;2022-12-29T10:31:05;11.23;;;2.03;;
62915;SDS011;49010;51.230;-2.306;2022-12-29T10:34:54;10.45;;;2.20;;
62915;SDS011;49010;51.230;-2.306;2022-12-29T10:38:42;10.60;;;2.00;;
62915;SDS011;49010;51.230;-2.306;2022-12-29T10:42:33;11.68;;;3.13;;
62915;SDS011;49010;51.230;-2.306;2022-12-29T10:46:20;11.50;;;3.13;;
62915;SDS011;49010;51.230;-2.306;2022-12-29T10:50:05;10.32;;;1.98;;
62915;SDS011;49010;51.230;-2.306;2022-12-29T10:53:51;10.48;;;2.60;;
62915;SDS011;49010;51.230;-2.306;2022-12-29T10:57:37;9.55;;;1.83;;
62915;SDS011;49010;51.230;-2.306;2022-12-29T11:01:25;13.75;;;3.30;;
62915;SDS011;49010;51.230;-2.306;2022-12-29T11:09:29;14.05;;;2.95;;
62915;SDS011;49010;51.230;-2.306;2022-12-29T11:13:30;13.48;;;2.83;;
62915;SDS011;49010;51.230;-2.306;2022-12-29T11:17:19;11.23;;;3.28;;
62915;SDS011;49010;51.230;-2.306;2022-12-29T11:21:02;12.50;;;2.67;;
62915;SDS011;49010;51.230;-2.306;2022-12-29T11:24:46;7.93;;;2.20;;
62915;SDS011;49010;51.230;-2.306;2022-12-29T11:28:29;17.85;;;3.50;;
62915;SDS011;49010;51.230;-2.306;2022-12-29T11:32:17;14.73;;;4.55;;
62915;SDS011;49010;51.230;-2.306;2022-12-29T11:36:16;14.20;;;2.63;;
62915;SDS011;49010;51.230;-2.306;2022-12-29T11:40:03;11.48;;;3.08;;
62915;SDS011;49010;51.230;-2.306;2022-12-29T11:43:49;12.45;;;2.30;;
62915;SDS011;49010;51.230;-2.306;2022-12-29T11:47:33;16.02;;;3.28;;
62915;SDS011;49010;51.230;-2.306;2022-12-29T11:51:25;13.20;;;2.50;;
62915;SDS011;49010;51.230;-2.306;2022-12-29T11:55:17;16.48;;;2.75;;
62915;SDS011;49010;51.230;-2.306;2022-12-29T12:10:58;10.63;;;2.42;;
62915;SDS011;49010;51.230;-2.306;2022-12-29T12:14:51;10.05;;;2.45;;
62915;SDS011;49010;51.230;-2.306;2022-12-29T12:18:53;6.78;;;1.77;;
62915;SDS011;49010;51.230;-2.306;2022-12-29T12:22:40;6.32;;;1.27;;
62915;SDS011;49010;51.230;-2.306;2022-12-29T12:26:34;7.82;;;1.90;;
62915;SDS011;49010;51.230;-2.306;2022-12-29T12:30:21;11.43;;;1.98;;
62915;SDS011;49010;51.230;-2.306;2022-12-29T12:34:05;9.45;;;1.65;;
62915;SDS011;49010;51.230;-2.306;2022-12-29T12:41:57;6.40;;;1.83;;
62915;SDS011;49010;51.230;-2.306;2022-12-29T12:58:02;7.72;;;1.88;;
62915;SDS011;49010;51.230;-2.306;2022-12-29T13:02:01;6.18;;;1.98;;
62915;SDS011;49010;51.230;-2.306;2022-12-29T13:06:42;5.05;;;2.28;;
62915;SDS011;49010;51.230;-2.306;2022-12-29T13:10:36;6.03;;;1.80;;
62915;SDS011;49010;51.230;-2.306;2022-12-29T13:18:58;10.27;;;2.13;;
62915;SDS011;49010;51.230;-2.306;2022-12-29T13:26:53;11.60;;;2.22;;
62915;SDS011;49010;51.230;-2.306;2022-12-29T13:31:04;11.82;;;2.35;;
62915;SDS011;49010;51.230;-2.306;2022-12-29T13:38:48;14.75;;;3.40;;
62915;SDS011;49010;51.230;-2.306;2022-12-29T13:42:39;10.13;;;1.98;;
62915;SDS011;49010;51.230;-2.306;2022-12-29T13:46:27;10.02;;;2.00;;
62915;SDS011;49010;51.230;-2.306;2022-12-29T13:50:17;6.25;;;2.67;;
62915;SDS011;49010;51.230;-2.306;2022-12-29T14:10:56;8.88;;;2.10;;
62915;SDS011;49010;51.230;-2.306;2022-12-29T14:14:21;10.68;;;1.95;;
62915;SDS011;49010;51.230;-2.306;2022-12-29T14:18:09;6.80;;;2.20;;
62915;SDS011;49010;51.230;-2.306;2022-12-29T14:21:58;7.03;;;2.30;;
62915;SDS011;49010;51.230;-2.306;2022-12-29T14:33:25;4.03;;;1.50;;
62915;SDS011;49010;51.230;-2.306;2022-12-29T14:37:22;7.30;;;2.38;;
62915;SDS011;49010;51.230;-2.306;2022-12-29T14:41:40;7.82;;;1.83;;
62915;SDS011;49010;51.230;-2.306;2022-12-29T14:45:29;7.63;;;1.77;;
62915;SDS011;49010;51.230;-2.306;2022-12-29T14:49:21;7.07;;;2.05;;
62915;SDS011;49010;51.230;-2.306;2022-12-29T14:53:09;5.05;;;1.42;;
62915;SDS011;49010;51.230;-2.306;2022-12-29T14:57:28;7.82;;;1.77;;
62915;SDS011;49010;51.230;-2.306;2022-12-29T15:01:17;5.45;;;1.90;;
62915;SDS011;49010;51.230;-2.306;2022-12-29T15:05:00;4.95;;;1.52;;
62915;SDS011;49010;51.230;-2.306;2022-12-29T15:08:47;5.88;;;1.40;;
62915;SDS011;49010;51.230;-2.306;2022-12-29T15:12:46;6.93;;;1.20;;
62915;SDS011;49010;51.230;-2.306;2022-12-29T15:16:33;7.00;;;1.40;;
62915;SDS011;49010;51.230;-2.306;2022-12-29T15:24:05;9.95;;;1.85;;
62915;SDS011;49010;51.230;-2.306;2022-12-29T15:27:52;5.22;;;1.15;;
62915;SDS011;49010;51.230;-2.306;2022-12-29T15:39:20;7.82;;;1.40;;
62915;SDS011;49010;51.230;-2.306;2022-12-29T15:47:23;6.63;;;2.17;;
62915;SDS011;49010;51.230;-2.306;2022-12-29T15:51:20;8.38;;;3.17;;
62915;SDS011;49010;51.230;-2.306;2022-12-29T15:55:21;10.77;;;2.00;;
62915;SDS011;49010;51.230;-2.306;2022-12-29T15:59:29;6.15;;;1.55;;
62915;SDS011;49010;51.230;-2.306;2022-12-29T16:03:13;5.90;;;1.60;;
62915;SDS011;49010;51.230;-2.306;2022-12-29T16:06:57;3.42;;;1.15;;
62915;SDS011;49010;51.230;-2.306;2022-12-29T16:10:41;9.20;;;1.38;;
62915;SDS011;49010;51.230;-2.306;2022-12-29T16:14:30;4.75;;;1.80;;
62915;SDS011;49010;51.230;-2.306;2022-12-29T16:18:32;6.00;;;1.52;;
62915;SDS011;49010;51.230;-2.306;2022-12-29T16:22:21;3.10;;;1.30;;
62915;SDS011;49010;51.230;-2.306;2022-12-29T16:26:11;5.00;;;1.58;;
62915;SDS011;49010;51.230;-2.306;2022-12-29T16:29:59;5.15;;;1.40;;
62915;SDS011;49010;51.230;-2.306;2022-12-29T16:33:47;5.57;;;2.30;;
62915;SDS011;49010;51.230;-2.306;2022-12-29T16:37:34;4.35;;;1.67;;
62915;SDS011;49010;51.230;-2.306;2022-12-29T16:41:28;5.07;;;1.65;;
62915;SDS011;49010;51.230;-2.306;2022-12-29T16:49:06;5.78;;;1.25;;
62915;SDS011;49010;51.230;-2.306;2022-12-29T16:53:01;5.18;;;1.35;;
62915;SDS011;49010;51.230;-2.306;2022-12-29T16:56:44;4.90;;;1.20;;
62915;SDS011;49010;51.230;-2.306;2022-12-29T17:00:27;4.40;;;1.60;;
62915;SDS011;49010;51.230;-2.306;2022-12-29T17:04:15;8.15;;;1.95;;
62915;SDS011;49010;51.230;-2.306;2022-12-29T17:07:57;6.57;;;1.83;;
62915;SDS011;49010;51.230;-2.306;2022-12-29T17:11:42;11.68;;;2.05;;
62915;SDS011;49010;51.230;-2.306;2022-12-29T17:15:42;12.95;;;2.00;;
62915;SDS011;49010;51.230;-2.306;2022-12-29T17:19:31;8.27;;;1.92;;
62915;SDS011;49010;51.230;-2.306;2022-12-29T17:23:15;9.50;;;2.22;;
62915;SDS011;49010;51.230;-2.306;2022-12-29T17:27:06;9.63;;;2.00;;
62915;SDS011;49010;51.230;-2.306;2022-12-29T17:30:48;9.45;;;1.65;;
62915;SDS011;49010;51.230;-2.306;2022-12-29T17:34:30;13.63;;;2.15;;
62915;SDS011;49010;51.230;-2.306;2022-12-29T17:42:04;14.05;;;2.28;;
62915;SDS011;49010;51.230;-2.306;2022-12-29T17:45:51;10.60;;;2.20;;
62915;SDS011;49010;51.230;-2.306;2022-12-29T17:49:37;12.77;;;2.78;;
62915;SDS011;49010;51.230;-2.306;2022-12-29T17:53:25;7.80;;;1.80;;
62915;SDS011;49010;51.230;-2.306;2022-12-29T17:57:10;13.02;;;2.33;;
62915;SDS011;49010;51.230;-2.306;2022-12-29T18:00:58;7.70;;;1.75;;
62915;SDS011;49010;51.230;-2.306;2022-12-29T18:04:41;7.68;;;2.50;;
62915;SDS011;49010;51.230;-2.306;2022-12-29T18:08:23;11.60;;;2.30;;
62915;SDS011;49010;51.230;-2.306;2022-12-29T18:12:05;9.55;;;2.00;;
62915;SDS011;49010;51.230;-2.306;2022-12-29T18:16:06;5.00;;;1.80;;
62915;SDS011;49010;51.230;-2.306;2022-12-29T18:19:49;6.50;;;2.08;;
62915;SDS011;49010;51.230;-2.306;2022-12-29T18:23:36;9.07;;;2.13;;
62915;SDS011;49010;51.230;-2.306;2022-12-29T18:27:17;8.65;;;1.67;;
62915;SDS011;49010;51.230;-2.306;2022-12-29T18:31:02;10.88;;;1.95;;
62915;SDS011;49010;51.230;-2.306;2022-12-29T18:34:44;5.85;;;1.48;;
62915;SDS011;49010;51.230;-2.306;2022-12-29T18:38:26;7.88;;;1.98;;
62915;SDS011;49010;51.230;-2.306;2022-12-29T18:42:08;9.65;;;2.05;;
62915;SDS011;49010;51.230;-2.306;2022-12-29T18:45:56;11.13;;;2.10;;
62915;SDS011;49010;51.230;-2.306;2022-12-29T18:49:37;6.32;;;1.92;;
62915;SDS011;49010;51.230;-2.306;2022-12-29T18:53:21;6.65;;;1.63;;
62915;SDS011;49010;51.230;-2.306;2022-12-29T18:57:04;7.50;;;2.17;;
62915;SDS011;49010;51.230;-2.306;2022-12-29T19:00:46;9.73;;;2.17;;
62915;SDS011;49010;51.230;-2.306;2022-12-29T19:04:28;8.27;;;1.75;;
62915;SDS011;49010;51.230;-2.306;2022-12-29T19:08:10;7.20;;;2.08;;
62915;SDS011;49010;51.230;-2.306;2022-12-29T19:11:52;6.03;;;2.60;;
62915;SDS011;49010;51.230;-2.306;2022-12-29T19:15:34;8.48;;;2.17;;
62915;SDS011;49010;51.230;-2.306;2022-12-29T19:19:20;8.07;;;1.70;;
62915;SDS011;49010;51.230;-2.306;2022-12-29T19:23:03;9.02;;;2.05;;
62915;SDS011;49010;51.230;-2.306;2022-12-29T19:26:46;9.70;;;2.17;;
62915;SDS011;49010;51.230;-2.306;2022-12-29T19:30:29;6.68;;;2.03;;
62915;SDS011;49010;51.230;-2.306;2022-12-29T19:34:13;7.63;;;1.88;;
62915;SDS011;49010;51.230;-2.306;2022-12-29T19:37:56;5.32;;;1.98;;
62915;SDS011;49010;51.230;-2.306;2022-12-29T19:41:38;8.25;;;3.00;;
62915;SDS011;49010;51.230;-2.306;2022-12-29T19:45:21;10.40;;;2.38;;
62915;SDS011;49010;51.230;-2.306;2022-12-29T19:49:03;9.23;;;2.22;;
62915;SDS011;49010;51.230;-2.306;2022-12-29T19:52:45;8.43;;;2.55;;
62915;SDS011;49010;51.230;-2.306;2022-12-29T19:56:27;8.50;;;2.05;;
62915;SDS011;49010;51.230;-2.306;2022-12-29T20:00:09;8.35;;;2.78;;
62915;SDS011;49010;51.230;-2.306;2022-12-29T20:03:53;5.90;;;2.05;;
62915;SDS011;49010;51.230;-2.306;2022-12-29T20:07:35;8.13;;;2.03;;
62915;SDS011;49010;51.230;-2.306;2022-12-29T20:11:17;9.88;;;2.40;;
62915;SDS011;49010;51.230;-2.306;2022-12-29T20:14:59;11.57;;;2.45;;
62915;SDS011;49010;51.230;-2.306;2022-12-29T20:18:41;6.60;;;2.10;;
62915;SDS011;49010;51.230;-2.306;2022-12-29T20:22:24;8.32;;;2.10;;
62915;SDS011;49010;51.230;-2.306;2022-12-29T20:26:06;8.23;;;2.22;;
62915;SDS011;49010;51.230;-2.306;2022-12-29T20:29:51;8.13;;;1.98;;
62915;SDS011;49010;51.230;-2.306;2022-12-29T20:33:34;6.50;;;2.15;;
62915;SDS011;49010;51.230;-2.306;2022-12-29T20:37:16;7.43;;;2.50;;
62915;SDS011;49010;51.230;-2.306;2022-12-29T20:40:58;7.57;;;1.88;;
62915;SDS011;49010;51.230;-2.306;2022-12-29T20:44:40;9.18;;;2.28;;
62915;SDS011;49010;51.230;-2.306;2022-12-29T20:48:22;11.65;;;1.85;;
62915;SDS011;49010;51.230;-2.306;2022-12-29T20:52:04;6.85;;;2.33;;
62915;SDS011;49010;51.230;-2.306;2022-12-29T20:55:47;10.18;;;2.15;;
62915;SDS011;49010;51.230;-2.306;2022-12-29T20:59:30;9.73;;;2.80;;
62915;SDS011;49010;51.230;-2.306;2022-12-29T21:03:12;8.80;;;2.75;;
62915;SDS011;49010;51.230;-2.306;2022-12-29T21:06:54;13.00;;;2.90;;
62915;SDS011;49010;51.230;-2.306;2022-12-29T21:10:36;8.45;;;2.00;;
62915;SDS011;49010;51.230;-2.306;2022-12-29T21:14:18;9.27;;;2.08;;
62915;SDS011;49010;51.230;-2.306;2022-12-29T21:18:00;8.88;;;2.20;;
62915;SDS011;49010;51.230;-2.306;2022-12-29T21:21:42;4.45;;;1.92;;
62915;SDS011;49010;51.230;-2.306;2022-12-29T21:25:23;8.20;;;1.67;;
62915;SDS011;49010;51.230;-2.306;2022-12-29T21:29:05;13.88;;;2.42;;
62915;SDS011;49010;51.230;-2.306;2022-12-29T21:32:47;8.05;;;1.80;;
62915;SDS011;49010;51.230;-2.306;2022-12-29T21:36:29;6.00;;;2.03;;
62915;SDS011;49010;51.230;-2.306;2022-12-29T21:40:11;5.50;;;1.80;;
62915;SDS011;49010;51.230;-2.306;2022-12-29T21:43:53;5.97;;;1.80;;
62915;SDS011;49010;51.230;-2.306;2022-12-29T21:47:56;10.80;;;2.15;;
62915;SDS011;49010;51.230;-2.306;2022-12-29T21:51:58;11.90;;;2.53;;
62915;SDS011;49010;51.230;-2.306;2022-12-29T21:55:40;8.05;;;2.33;;
62915;SDS011;49010;51.230;-2.306;2022-12-29T21:59:21;12.23;;;2.22;;
62915;SDS011;49010;51.230;-2.306;2022-12-29T22:03:22;9.38;;;1.52;;
62915;SDS011;49010;51.230;-2.306;2022-12-29T22:07:22;9.10;;;1.83;;
62915;SDS011;49010;51.230;-2.306;2022-12-29T22:11:22;13.68;;;2.90;;
62915;SDS011;49010;51.230;-2.306;2022-12-29T22:15:24;13.45;;;2.10;;
62915;SDS011;49010;51.230;-2.306;2022-12-29T22:19:07;7.70;;;2.15;;
62915;SDS011;49010;51.230;-2.306;2022-12-29T22:22:50;12.35;;;3.13;;
62915;SDS011;49010;51.230;-2.306;2022-12-29T22:26:32;5.82;;;2.40;;
62915;SDS011;49010;51.230;-2.306;2022-12-29T22:30:14;7.03;;;2.38;;
62915;SDS011;49010;51.230;-2.306;2022-12-29T22:33:58;8.07;;;2.00;;
62915;SDS011;49010;51.230;-2.306;2022-12-29T22:37:41;13.38;;;3.88;;
62915;SDS011;49010;51.230;-2.306;2022-12-29T22:41:23;6.55;;;2.00;;
62915;SDS011;49010;51.230;-2.306;2022-12-29T22:45:05;13.13;;;2.70;;
62915;SDS011;49010;51.230;-2.306;2022-12-29T22:48:48;7.95;;;1.65;;
62915;SDS011;49010;51.230;-2.306;2022-12-29T22:52:29;14.98;;;2.20;;
62915;SDS011;49010;51.230;-2.306;2022-12-29T22:56:12;11.05;;;2.50;;
62915;SDS011;49010;51.230;-2.306;2022-12-29T22:59:54;15.73;;;3.30;;
62915;SDS011;49010;51.230;-2.306;2022-12-29T23:03:37;12.27;;;1.88;;
62915;SDS011;49010;51.230;-2.306;2022-12-29T23:07:19;7.40;;;1.98;;
62915;SDS011;49010;51.230;-2.306;2022-12-29T23:11:02;8.70;;;2.40;;
62915;SDS011;49010;51.230;-2.306;2022-12-29T23:14:44;9.07;;;2.35;;
62915;SDS011;49010;51.230;-2.306;2022-12-29T23:18:26;11.90;;;2.38;;
62915;SDS011;49010;51.230;-2.306;2022-12-29T23:22:08;9.57;;;1.65;;
62915;SDS011;49010;51.230;-2.306;2022-12-29T23:25:50;15.55;;;2.70;;
62915;SDS011;49010;51.230;-2.306;2022-12-29T23:29:32;10.30;;;2.20;;
62915;SDS011;49010;51.230;-2.306;2022-12-29T23:33:14;12.38;;;1.75;;
62915;SDS011;49010;51.230;-2.306;2022-12-29T23:36:55;11.10;;;2.33;;
62915;SDS011;49010;51.230;-2.306;2022-12-29T23:40:37;13.73;;;2.28;;
62915;SDS011;49010;51.230;-2.306;2022-12-29T23:44:19;10.75;;;2.22;;
62915;SDS011;49010;51.230;-2.306;2022-12-29T23:48:01;10.77;;;2.83;;
62915;SDS011;49010;51.230;-2.306;2022-12-29T23:51:43;5.90;;;2.00;;
62915;SDS011;49010;51.230;-2.306;2022-12-29T23:55:25;12.68;;;2.33;;
62915;SDS011;49010;51.230;-2.306;2022-12-29T23:59:06;8.90;;;1.75;;
